• Join FlightAware (Why Join?)
  • Login
  • US Flag 
09:41PM EST


 

Airport Tracker/Info


-or-


 

Live Flight TrackerFlight Track Log ✈ ASQ6115 ✈ 24-Apr-2013 ✈ KORD - KMSN

Flight Track Log - Related Links

Times and Time Zones

All times are in EDT time to prevent confusion due to time zone crossing. See the ASQ6115 flight status page for this flight to view local times or setup timezone preferences in your user account.

Time Position Orientation Groundspeed Altitude Reporting Facility
EDT Latitude Longitude Course Direction KTS MPH feet Rate Location/Type
07:26PM 42.0167 -87.9333 346° North 202 232 2,800  Level Chicago TRACON
07:27PM 42.0833 -87.9333 360° North 247 284 5,400 3,060 Climbing Chicago TRACON
07:28PM 42.1253 -87.9453 348° North 244 281 7,900 3,060 Climbing Chicago Center
07:29PM 42.1953 -87.9556 354° North 253 291 10,900 1,980 Climbing Chicago Center
07:30PM 42.3615 -88.0205 346° North  Level FlightAware Approximate
07:30PM 42.2625 -87.9894 340° North 263 303 12,000  Level Chicago Center
07:31PM 42.4405 -88.0468 346° North  Level FlightAware Approximate
07:31PM 42.3183 -88.0503 321° Northwest 260 299 12,000  Level Chicago Center
07:32PM 42.3981 -88.0486 North 277 319 12,000  Level Chicago Center
07:33PM 42.4897 -88.0406 North 282 325 12,000  Level Chicago Center
07:34PM 42.5647 -88.0531 353° North 278 320 12,000  Level Chicago Center
07:35PM 42.6411 -88.0836 344° North 289 333 12,000  Level Chicago Center
07:36PM 42.7294 -88.1219 342° North 328 377 12,000  Level Chicago Center
07:37PM 42.8161 -88.1636 341° North 330 380 12,000 -420 Level Chicago Center
07:38PM 42.8636 -88.2900 297° West 324 373 11,200 -900 Descending Chicago Center
07:39PM 42.8947 -88.4050 290° West 323 372 10,200 -600 Descending Chicago Center
07:40PM 42.9258 -88.5175 291° West 318 366 10,000 -120 Descending Chicago Center
07:41PM 42.9567 -88.6319 290° West 318 366 10,000  Level Chicago Center
07:42PM 42.9861 -88.7442 290° West 316 364 10,000 -480 Level Chicago Center
07:43PM 43.0217 -88.8250 301° West 257 296 9,100 -1,620 Descending Chicago Center
07:44PM 43.0644 -88.9194 302° West 247 284 6,700 -1,920 Descending Chicago Center
07:45PM 43.1022 -89.0008 302° West 250 288 5,200 -1,260 Descending Chicago Center
07:46PM 43.1381 -89.0789 302° West 248 285 4,100 -1,140 Descending Chicago Center
07:47PM 43.1711 -89.1522 302° West 237 273 2,900 -720 Descending Chicago Center
07:48PM 43.2003 -89.2183 301° West 220 253 2,700 -240 Descending Chicago Center